Time;durP1;ratioP1;P1;durP2;ratioP2;P2;SDS_P1;SDS_P2;PMS_P1;PMS_P2;Temp;Humidity;BMP_temperature;BMP_pressure;BME280_temperature;BME280_humidity;BME280_pressure;Samples;Min_cycle;Max_cycle;Signal;HPM_P1;HPM_P2
2021/11/19 00:00:59;;;;;;;;;23.00;20.50;;;;;10.57;69.63;102542.97;5034219;28;46772;-81
2021/11/19 00:03:27;;;;;;;;;24.00;20.00;;;;;10.59;69.41;102543.72;5014755;28;47101;-80
2021/11/19 00:05:53;;;;;;;;;20.75;19.25;;;;;10.60;69.55;102539.34;5019000;28;45177;-84
2021/11/19 00:08:25;;;;;;;;;23.00;19.00;;;;;10.56;69.37;102530.75;5016523;28;45700;-82
2021/11/19 00:10:57;;;;;;;;;24.25;19.25;;;;;10.63;69.43;102545.34;5036546;28;46290;-83
2021/11/19 00:13:23;;;;;;;;;14.75;13.00;;;;;10.63;69.40;102542.72;5037581;28;45437;-84
2021/11/19 00:15:49;;;;;;;;;24.00;20.25;;;;;10.57;69.33;102529.00;5039162;28;45854;-79
2021/11/19 00:18:16;;;;;;;;;21.25;19.50;;;;;10.62;69.47;102534.91;5040905;28;45100;-80
2021/11/19 00:27:10;;;;;;;;;21.00;18.25;;;;;10.54;69.41;102527.34;5019286;28;45710;-82
2021/11/19 00:29:36;;;;;;;;;19.75;17.75;;;;;10.65;69.24;102530.38;5002091;28;46092;-89
2021/11/19 00:32:02;;;;;;;;;24.75;18.25;;;;;10.66;69.38;102529.47;5022659;28;45772;-83
2021/11/19 00:34:27;;;;;;;;;23.00;18.50;;;;;10.63;69.06;102528.75;5025308;28;46194;-80
2021/11/19 00:36:57;;;;;;;;;20.75;19.00;;;;;10.56;69.16;102506.31;5005842;28;45593;-80
2021/11/19 00:39:24;;;;;;;;;25.50;18.75;;;;;10.57;69.27;102514.13;5021251;28;45696;-80
2021/11/19 00:41:50;;;;;;;;;22.00;19.50;;;;;10.48;69.34;102494.38;5006997;28;47218;-80
2021/11/19 00:44:16;;;;;;;;;16.75;14.50;;;;;10.38;69.20;102471.22;5026582;28;45346;-82
2021/11/19 00:46:44;;;;;;;;;18.75;15.75;;;;;10.67;69.20;102519.84;5026333;28;45677;-82
2021/11/19 00:49:11;;;;;;;;;21.25;18.00;;;;;10.66;69.13;102513.75;5008811;28;45887;-81
2021/11/19 00:51:40;;;;;;;;;17.00;15.00;;;;;10.67;69.10;102519.84;5026775;28;46585;-79
2021/11/19 00:54:08;;;;;;;;;18.50;14.75;;;;;10.67;69.31;102515.47;5020925;28;46178;-79
2021/11/19 00:56:40;;;;;;;;;14.25;13.75;;;;;10.61;69.22;102515.69;5023767;28;45731;-80
2021/11/19 00:59:06;;;;;;;;;23.50;18.50;;;;;10.59;69.31;102508.81;5006688;28;45601;-80
2021/11/19 01:01:35;;;;;;;;;25.00;19.75;;;;;10.53;69.36;102494.19;5026169;28;46724;-80
2021/11/19 01:04:03;;;;;;;;;26.50;20.00;;;;;10.67;69.14;102519.84;5025212;28;46112;-78
2021/11/19 01:06:31;;;;;;;;;21.75;19.75;;;;;10.66;69.29;102521.59;5026009;28;45863;-79
2021/11/19 01:08:58;;;;;;;;;19.00;17.75;;;;;10.63;69.14;102508.66;5010936;28;45647;-79
2021/11/19 01:11:26;;;;;;;;;18.25;16.00;;;;;10.58;68.80;102500.09;5009448;28;47826;-79
2021/11/19 01:13:54;;;;;;;;;18.25;16.25;;;;;10.64;69.11;102512.94;5033027;28;46382;-80
2021/11/19 01:16:34;;;;;;;;;24.25;16.75;;;;;10.62;69.23;102501.69;5033991;28;45276;-81
2021/11/19 01:19:05;;;;;;;;;19.50;18.00;;;;;10.70;69.09;102503.97;5016652;28;45552;-80
2021/11/19 01:21:42;;;;;;;;;22.75;18.25;;;;;10.71;69.30;102510.94;5034241;28;46543;-80
2021/11/19 01:24:08;;;;;;;;;19.25;19.00;;;;;10.67;68.93;102501.50;5032699;28;45981;-80
2021/11/19 01:26:36;;;;;;;;;18.75;16.75;;;;;10.71;69.22;102514.41;5031152;28;45678;-83
2021/11/19 01:29:06;;;;;;;;;25.25;18.25;;;;;10.72;69.28;102502.16;5030748;28;45604;-83
2021/11/19 01:31:40;;;;;;;;;19.50;17.50;;;;;10.68;69.16;102493.56;5024720;28;46522;-78
2021/11/19 01:34:06;;;;;;;;;21.25;18.50;;;;;10.72;69.10;102505.63;4992688;28;45725;-83
2021/11/19 01:36:32;;;;;;;;;22.25;19.00;;;;;10.64;69.16;102481.50;5025860;28;45894;-80
2021/11/19 01:38:58;;;;;;;;;25.25;19.00;;;;;10.75;69.25;102502.88;5028208;28;45561;-80
2021/11/19 01:41:32;;;;;;;;;19.00;15.50;;;;;10.67;68.98;102494.50;5027466;28;45775;-81
2021/11/19 01:44:01;;;;;;;;;22.00;18.25;;;;;10.75;69.20;102499.41;5026726;28;46653;-82
2021/11/19 01:46:29;;;;;;;;;17.75;15.50;;;;;10.77;68.96;102500.19;5027805;28;45700;-80
2021/11/19 01:48:58;;;;;;;;;17.00;15.00;;;;;10.76;68.98;102490.63;5026816;28;45580;-80
2021/11/19 01:51:43;;;;;;;;;18.25;15.50;;;;;10.80;69.19;102508.78;5028597;28;46496;-80
2021/11/19 01:54:14;;;;;;;;;18.00;17.50;;;;;10.81;69.13;102505.25;5028341;28;45690;-82
2021/11/19 01:56:52;;;;;;;;;23.25;20.00;;;;;10.81;69.10;102491.28;5026436;28;45604;-80
2021/11/19 01:59:44;;;;;;;;;18.75;14.50;;;;;10.80;68.93;102487.81;5021206;28;45628;-84
2021/11/19 02:02:16;;;;;;;;;18.25;16.00;;;;;10.76;69.14;102486.22;5026660;28;45677;-79
2021/11/19 02:04:53;;;;;;;;;20.00;17.75;;;;;10.65;69.06;102464.00;5009641;28;46002;-83
2021/11/19 02:07:27;;;;;;;;;17.25;15.25;;;;;10.82;68.83;102488.59;5007852;28;45881;-85
2021/11/19 02:10:01;;;;;;;;;17.25;15.50;;;;;10.84;68.99;102486.78;5025738;28;45443;-86
2021/11/19 02:13:04;;;;;;;;;20.25;17.25;;;;;10.88;69.04;102492.75;5024477;28;45560;-80
2021/11/19 02:15:43;;;;;;;;;18.25;17.50;;;;;10.89;68.93;102490.06;5022219;28;46259;-82
2021/11/19 02:18:21;;;;;;;;;21.00;18.50;;;;;10.68;68.96;102449.00;5018077;28;45623;-79
2021/11/19 02:20:51;;;;;;;;;25.25;20.50;;;;;10.92;68.79;102486.44;5019164;28;45733;-83
2021/11/19 02:23:23;;;;;;;;;19.00;15.00;;;;;10.84;68.82;102475.44;5019957;28;46360;-85
2021/11/19 02:26:03;;;;;;;;;18.50;14.00;;;;;10.96;68.79;102482.75;5023944;28;45987;-80
2021/11/19 02:28:32;;;;;;;;;24.25;18.00;;;;;10.91;68.77;102476.84;5022919;28;45909;-79
2021/11/19 02:31:06;;;;;;;;;20.00;16.75;;;;;10.96;68.73;102489.81;5022745;28;45566;-80
2021/11/19 02:33:32;;;;;;;;;19.75;16.75;;;;;10.91;68.82;102479.47;5027399;28;45772;-82
2021/11/19 02:36:04;;;;;;;;;18.50;17.50;;;;;10.91;68.78;102477.72;5028450;28;45614;-80
2021/11/19 02:39:02;;;;;;;;;17.00;15.00;;;;;11.01;68.74;102485.22;5025961;28;45824;-80
2021/11/19 02:41:31;;;;;;;;;19.50;18.00;;;;;10.99;68.64;102490.50;5024801;28;45623;-80
2021/11/19 02:44:09;;;;;;;;;20.75;16.25;;;;;11.00;68.77;102488.75;5022215;28;45774;-79
2021/11/19 02:46:39;;;;;;;;;24.25;18.00;;;;;11.01;68.86;102483.44;5021115;28;46032;-79
2021/11/19 02:49:05;;;;;;;;;22.00;19.00;;;;;11.01;68.70;102485.22;5022410;28;45572;-80
2021/11/19 02:51:34;;;;;;;;;23.25;21.00;;;;;11.01;68.90;102491.31;5023546;28;45456;-80
2021/11/19 02:54:05;;;;;;;;;20.00;18.00;;;;;10.87;68.88;102468.28;5022451;28;46857;-82
2021/11/19 02:56:30;;;;;;;;;24.00;19.50;;;;;11.02;68.69;102490.38;5018622;28;46020;-80
2021/11/19 02:59:01;;;;;;;;;22.25;19.25;;;;;11.04;68.80;102480.69;5019070;28;45505;-85
2021/11/19 03:01:39;;;;;;;;;22.25;19.25;;;;;10.99;68.75;102476.53;5019630;28;45721;-82
2021/11/19 03:04:04;;;;;;;;;20.25;17.75;;;;;11.05;68.75;102479.75;5019375;28;46608;-81
2021/11/19 03:06:38;;;;;;;;;25.00;20.00;;;;;11.08;68.76;102484.00;5005093;28;47122;-80
2021/11/19 03:09:05;;;;;;;;;24.00;19.75;;;;;11.00;68.78;102466.00;5008504;28;45887;-84
2021/11/19 03:11:31;;;;;;;;;26.75;19.00;;;;;11.07;68.69;102480.53;5006137;28;45615;-82
2021/11/19 03:13:56;;;;;;;;;20.00;17.75;;;;;11.09;68.90;102480.47;5021930;28;46875;-86
2021/11/19 03:16:22;;;;;;;;;22.00;20.75;;;;;11.09;68.61;102477.84;5021443;28;45697;-88
2021/11/19 03:18:47;;;;;;;;;20.25;18.00;;;;;10.97;68.85;102457.38;5020448;28;45454;-85
2021/11/19 03:21:18;;;;;;;;;20.50;19.25;;;;;11.06;68.77;102473.59;5020613;28;45734;-89
2021/11/19 03:23:45;;;;;;;;;20.00;19.00;;;;;11.11;68.72;102479.50;5020472;28;46365;-88
2021/11/19 03:26:11;;;;;;;;;25.50;17.25;;;;;10.98;68.64;102454.72;5021628;28;46040;-85
2021/11/19 03:28:38;;;;;;;;;19.25;18.75;;;;;10.81;68.66;102423.97;5021821;28;45840;-80
2021/11/19 03:31:16;;;;;;;;;17.50;16.50;;;;;11.11;68.73;102474.25;5020456;28;45631;-91
2021/11/19 03:33:46;;;;;;;;;27.25;20.25;;;;;11.10;68.67;102469.94;5017768;28;45768;-81
2021/11/19 03:36:13;;;;;;;;;18.50;17.50;;;;;11.10;68.71;102477.78;5000478;28;48049;-90
2021/11/19 03:38:41;;;;;;;;;24.75;18.25;;;;;11.05;68.69;102461.41;5018550;28;45777;-85
2021/11/19 03:41:08;;;;;;;;;24.00;18.75;;;;;10.88;68.67;102433.28;5019314;28;45662;-81
2021/11/19 03:44:02;;;;;;;;;21.75;17.75;;;;;10.82;68.55;102430.06;5019621;28;46531;-86
2021/11/19 03:46:35;;;;;;;;;19.25;18.50;;;;;11.05;68.62;102460.56;5019766;28;46398;-89
2021/11/19 03:49:12;;;;;;;;;17.50;11.75;;;;;10.96;68.71;102448.66;5019118;28;45721;-86
2021/11/19 03:51:44;;;;;;;;;18.75;18.00;;;;;11.03;68.62;102463.22;5022689;28;45629;-84
2021/11/19 03:54:11;;;;;;;;;25.00;19.75;;;;;10.99;68.67;102458.19;5022555;28;47387;-84
2021/11/19 03:56:37;;;;;;;;;19.50;18.75;;;;;10.88;68.75;102432.44;5022847;28;46370;-85
2021/11/19 03:59:05;;;;;;;;;21.75;17.50;;;;;11.03;68.83;102462.38;5018081;28;45639;-87
2021/11/19 04:01:34;;;;;;;;;18.50;17.00;;;;;10.88;68.81;102437.66;5018056;28;45606;-86
2021/11/19 04:04:02;;;;;;;;;20.75;17.00;;;;;10.90;68.55;102443.72;5017187;28;45749;-88
2021/11/19 04:06:28;;;;;;;;;17.50;14.75;;;;;10.86;68.75;102434.25;5017275;28;46249;-83
2021/11/19 04:08:54;;;;;;;;;21.50;15.50;;;;;10.74;68.65;102413.81;5025971;28;45529;-87
2021/11/19 04:11:21;;;;;;;;;24.75;17.50;;;;;11.02;68.65;102460.66;5009099;28;45928;-85
2021/11/19 04:13:53;;;;;;;;;16.25;14.00;;;;;11.00;68.75;102460.75;5010268;28;46741;-91
2021/11/19 04:16:41;;;;;;;;;19.50;17.00;;;;;11.01;68.79;102459.84;5028519;28;46391;-83
2021/11/19 04:19:07;;;;;;;;;18.00;14.25;;;;;11.01;68.76;102456.38;5023130;28;45631;-85
2021/11/19 04:21:33;;;;;;;;;17.00;14.50;;;;;11.06;68.71;102465.75;5024695;28;45478;-85
2021/11/19 04:24:04;;;;;;;;;23.00;17.25;;;;;10.69;68.47;102408.75;5020610;28;45624;-84
2021/11/19 04:26:31;;;;;;;;;19.00;16.25;;;;;10.99;68.48;102452.94;5019762;28;46199;-81
2021/11/19 04:28:57;;;;;;;;;14.25;12.75;;;;;10.87;68.76;102447.31;5001313;28;45549;-82
2021/11/19 04:31:25;;;;;;;;;18.75;17.50;;;;;10.80;68.51;102438.00;5001941;28;46014;-79
2021/11/19 04:33:51;;;;;;;;;19.50;16.75;;;;;10.95;68.58;102467.97;5018566;28;45569;-83
2021/11/19 04:36:18;;;;;;;;;5.50;1.75;;;;;10.97;68.58;102462.63;5019118;28;46206;-80
2021/11/19 04:38:44;;;;;;;;;18.25;14.50;;;;;10.61;68.48;102410.00;5022224;28;45645;-88
2021/11/19 04:41:10;;;;;;;;;18.50;15.00;;;;;10.96;68.49;102468.81;5024395;28;45554;-90
2021/11/19 04:43:36;;;;;;;;;14.00;13.25;;;;;10.96;68.55;102458.34;5026179;28;46191;-89
2021/11/19 04:46:05;;;;;;;;;15.75;13.25;;;;;10.98;68.23;102469.59;5025379;28;47429;-88
2021/11/19 04:48:34;;;;;;;;;18.50;15.00;;;;;10.91;68.45;102455.88;5029745;28;45743;-81
2021/11/19 04:51:01;;;;;;;;;19.25;17.00;;;;;10.96;68.37;102455.72;5012946;28;45652;-85
2021/11/19 04:53:28;;;;;;;;;16.50;13.25;;;;;10.91;68.37;102458.50;5029487;28;45510;-85
2021/11/19 04:55:55;;;;;;;;;15.75;13.75;;;;;10.96;68.31;102469.66;5006717;28;47294;-83
2021/11/19 04:58:21;;;;;;;;;17.25;13.00;;;;;10.86;68.41;102449.97;5025370;28;45727;-88
2021/11/19 05:00:52;;;;;;;;;18.00;14.00;;;;;10.93;68.22;102454.06;5006083;28;45663;-86
2021/11/19 05:03:18;;;;;;;;;14.00;13.25;;;;;10.89;68.24;102449.88;5021938;28;46434;-88
2021/11/19 05:05:46;;;;;;;;;17.00;13.75;;;;;10.99;68.25;102469.53;5023410;28;45505;-79
2021/11/19 05:08:11;;;;;;;;;21.00;15.00;;;;;10.99;68.10;102466.06;5023026;28;45558;-83
2021/11/19 05:10:40;;;;;;;;;16.00;15.00;;;;;10.91;68.07;102463.75;5024086;28;45579;-88
2021/11/19 05:13:08;;;;;;;;;16.00;14.00;;;;;10.98;68.02;102466.97;5023483;28;46813;-88
2021/11/19 05:15:36;;;;;;;;;15.00;13.75;;;;;10.66;68.02;102406.28;5023870;28;45987;-84
2021/11/19 05:18:02;;;;;;;;;19.00;15.00;;;;;10.97;68.20;102462.63;5028454;28;45739;-85
2021/11/19 05:20:30;;;;;;;;;15.25;13.00;;;;;10.88;68.18;102445.53;5027814;28;45587;-86
2021/11/19 05:22:56;;;;;;;;;19.00;13.25;;;;;10.89;68.15;102444.63;5005962;28;47681;-84
2021/11/19 05:28:43;;;;;;;;;15.75;12.00;;;;;11.00;68.00;102452.03;5021161;28;45605;-89
2021/11/19 05:31:18;;;;;;;;;15.25;14.25;;;;;10.91;68.21;102441.00;5023154;28;45209;-91
2021/11/19 05:33:44;;;;;;;;;14.75;13.50;;;;;10.94;68.01;102440.88;5021343;28;46492;-87
2021/11/19 05:36:12;;;;;;;;;15.00;14.00;;;;;10.98;67.96;102446.84;5021451;28;45602;-84
2021/11/19 05:38:39;;;;;;;;;16.00;14.00;;;;;10.96;68.09;102440.81;5025286;28;46157;-84
2021/11/19 05:41:07;;;;;;;;;17.25;14.00;;;;;10.85;68.12;102425.53;5025170;28;45634;-83
2021/11/19 05:43:34;;;;;;;;;15.00;13.50;;;;;10.91;67.89;102435.75;5026896;28;46791;-90
2021/11/19 05:46:01;;;;;;;;;18.00;15.50;;;;;10.99;67.96;102448.56;5025605;28;46288;-83
2021/11/19 05:48:26;;;;;;;;;20.50;16.75;;;;;11.00;67.98;102457.28;5028897;28;45768;-82
2021/11/19 05:50:52;;;;;;;;;19.00;16.00;;;;;10.98;68.08;102459.09;5028663;28;45512;-89
2021/11/19 05:53:20;;;;;;;;;15.00;13.00;;;;;10.71;68.00;102420.03;5026212;28;45605;-85
2021/11/19 05:55:48;;;;;;;;;16.25;14.25;;;;;10.88;67.84;102462.13;5026907;28;46578;-89
2021/11/19 05:58:15;;;;;;;;;15.75;15.00;;;;;10.74;67.90;102448.72;5027788;28;45739;-88
2021/11/19 06:00:48;;;;;;;;;14.50;13.00;;;;;10.83;68.09;102458.00;5027900;28;45358;-90
2021/11/19 06:03:14;;;;;;;;;14.75;12.50;;;;;10.88;68.03;102469.13;5024298;28;46674;-82
2021/11/19 06:05:40;;;;;;;;;14.50;14.00;;;;;10.78;68.06;102446.84;5008965;28;47664;-89
2021/11/19 06:08:06;;;;;;;;;18.00;14.00;;;;;10.90;68.01;102468.13;5031714;28;45429;-82
2021/11/19 06:14:00;;;;;;;;;17.50;13.25;;;;;10.93;68.07;102465.41;5032227;28;46060;-88
2021/11/19 06:16:32;;;;;;;;;16.50;13.75;;;;;10.96;68.38;102463.59;5024096;28;46869;-86
2021/11/19 06:19:04;;;;;;;;;13.75;12.50;;;;;10.87;67.97;102456.94;5020851;28;45561;-81
2021/11/19 06:21:35;;;;;;;;;16.00;13.25;;;;;10.96;67.95;102467.03;5019259;28;45974;-80
2021/11/19 06:24:06;;;;;;;;;14.75;12.25;;;;;10.94;68.07;102458.38;5022637;28;45754;-82
2021/11/19 06:26:32;;;;;;;;;14.25;13.50;;;;;10.97;68.22;102460.00;5023156;28;45908;-80
2021/11/19 06:29:04;;;;;;;;;12.00;9.75;;;;;11.04;68.06;102472.81;5023884;28;45683;-82
2021/11/19 06:31:31;;;;;;;;;13.75;11.25;;;;;11.06;67.92;102478.00;5024671;28;45278;-79
2021/11/19 06:33:57;;;;;;;;;8.25;7.00;;;;;11.08;67.81;102469.13;5029623;28;45535;-84
2021/11/19 06:36:23;;;;;;;;;16.00;14.00;;;;;11.09;67.78;102475.22;5036491;28;45089;-85
2021/11/19 06:38:50;;;;;;;;;15.25;14.25;;;;;11.10;67.96;102476.94;5035880;28;45540;-87
2021/11/19 06:41:18;;;;;;;;;12.25;10.25;;;;;11.00;67.89;102455.50;5036390;28;45212;-87
2021/11/19 06:43:43;;;;;;;;;15.00;13.75;;;;;11.13;67.71;102477.66;5031190;28;46948;-84
2021/11/19 06:46:10;;;;;;;;;19.25;13.50;;;;;11.09;67.57;102469.97;5018179;28;45735;-83
2021/11/19 06:48:36;;;;;;;;;19.50;15.75;;;;;11.08;67.68;102478.75;5017913;28;45560;-80
2021/11/19 06:51:03;;;;;;;;;16.25;14.00;;;;;11.12;67.83;102482.97;5017134;28;45912;-84
2021/11/19 06:53:31;;;;;;;;;15.75;15.25;;;;;11.14;67.67;102489.84;5002479;28;46646;-80
2021/11/19 06:59:18;;;;;;;;;13.00;9.50;;;;;11.12;67.76;102475.13;5016150;28;45513;-83
2021/11/19 07:01:45;;;;;;;;;12.00;10.00;;;;;11.17;67.75;102486.25;5016224;28;45464;-84
2021/11/19 07:04:10;;;;;;;;;13.75;13.25;;;;;11.18;67.74;102486.16;5017205;28;45748;-80
2021/11/19 07:06:38;;;;;;;;;15.75;12.75;;;;;11.09;67.58;102470.84;4998148;28;47282;-80
2021/11/19 07:09:05;;;;;;;;;13.75;13.25;;;;;11.13;67.57;102475.03;5016355;28;45686;-81
2021/11/19 07:11:31;;;;;;;;;15.25;14.25;;;;;11.20;67.62;102488.72;5015672;28;46061;-87
2021/11/19 07:13:57;;;;;;;;;21.25;16.50;;;;;11.27;67.64;102508.53;5018098;28;46694;-82
2021/11/19 07:16:27;;;;;;;;;19.25;14.25;;;;;11.27;67.73;102504.16;5016747;28;46295;-78
2021/11/19 07:18:55;;;;;;;;;18.00;14.75;;;;;11.27;67.63;102505.94;5015820;28;45580;-77
2021/11/19 07:21:22;;;;;;;;;17.00;14.75;;;;;11.29;67.61;102509.31;5014914;28;45921;-79
2021/11/19 07:23:47;;;;;;;;;17.50;15.00;;;;;11.28;67.59;102503.22;5015081;28;45537;-76
2021/11/19 07:29:35;;;;;;;;;15.75;15.75;;;;;11.27;67.44;102505.94;5014163;28;45608;-79
2021/11/19 07:32:02;;;;;;;;;20.75;18.00;;;;;11.38;67.48;102522.06;5014013;28;45523;-77
2021/11/19 07:34:28;;;;;;;;;18.00;15.25;;;;;11.37;67.68;102517.72;5013480;28;45591;-75
2021/11/19 07:36:53;;;;;;;;;15.25;14.00;;;;;11.42;67.40;102522.75;5012236;28;46279;-77
2021/11/19 07:39:18;;;;;;;;;15.25;13.75;;;;;11.41;67.36;102524.53;5012374;28;45885;-79
2021/11/19 07:41:44;;;;;;;;;14.75;14.00;;;;;11.43;67.13;102533.19;5013005;28;45496;-81
2021/11/19 07:44:09;;;;;;;;;16.25;15.75;;;;;11.45;67.27;102533.97;5013358;28;46422;-79
2021/11/19 07:46:35;;;;;;;;;14.50;13.50;;;;;11.30;67.47;102504.00;5013486;28;45599;-76
2021/11/19 07:49:03;;;;;;;;;16.00;15.00;;;;;11.48;67.31;102533.00;5013835;28;45814;-75
2021/11/19 07:51:38;;;;;;;;;11.75;9.00;;;;;11.48;67.48;102536.47;5014251;28;45763;-79
2021/11/19 07:54:05;;;;;;;;;16.75;14.50;;;;;11.47;67.40;102523.41;5013515;28;46362;-79
2021/11/19 08:00:28;;;;;;;;;15.75;14.00;;;;;11.48;67.43;102520.72;5013427;28;45847;-77
2021/11/19 08:02:54;;;;;;;;;18.75;15.00;;;;;11.60;67.28;102546.44;5013463;28;45614;-79
2021/11/19 08:05:20;;;;;;;;;16.50;14.75;;;;;11.62;67.33;102543.72;5013253;28;45580;-76
2021/11/19 08:07:45;;;;;;;;;16.50;13.25;;;;;11.64;67.15;102539.28;5013348;28;46110;-77
2021/11/19 08:10:12;;;;;;;;;16.75;14.75;;;;;11.64;67.28;102542.75;5013111;28;45680;-76
2021/11/19 08:12:38;;;;;;;;;14.75;14.25;;;;;11.39;67.19;102494.03;5014137;28;45660;-81
2021/11/19 08:15:05;;;;;;;;;20.00;19.00;;;;;11.70;67.06;102539.00;5014236;28;45621;-77
2021/11/19 08:17:43;;;;;;;;;19.50;15.75;;;;;11.68;66.99;102538.22;5013024;28;47708;-79
2021/11/19 08:20:15;;;;;;;;;16.50;15.00;;;;;11.71;67.14;102541.53;5013393;28;45529;-80
2021/11/19 08:22:41;;;;;;;;;20.00;16.00;;;;;11.76;67.03;102544.88;5013275;28;45465;-80
2021/11/19 08:25:08;;;;;;;;;15.75;14.75;;;;;11.68;66.91;102525.94;5012490;28;45756;-77
2021/11/19 08:27:39;;;;;;;;;15.25;14.00;;;;;11.83;66.91;102552.44;5012928;28;46380;-77
2021/11/19 08:30:10;;;;;;;;;15.25;14.50;;;;;11.85;67.06;102548.00;5012908;28;45600;-80
2021/11/19 08:32:36;;;;;;;;;19.00;16.50;;;;;11.81;66.86;102535.94;5013018;28;45738;-79
2021/11/19 08:35:05;;;;;;;;;21.75;17.75;;;;;11.84;66.78;102538.41;5012893;28;47197;-78
2021/11/19 08:37:31;;;;;;;;;22.00;18.25;;;;;11.89;66.83;102536.41;5013196;28;46044;-84
2021/11/19 08:39:58;;;;;;;;;22.25;16.00;;;;;11.82;66.68;102527.13;5013555;28;45885;-81
2021/11/19 08:42:24;;;;;;;;;60.00;46.75;;;;;11.92;67.15;102536.28;5012515;28;45973;-76
2021/11/19 08:44:50;;;;;;;;;51.50;40.00;;;;;12.05;67.13;102546.16;5012972;28;47223;-78
2021/11/19 08:47:18;;;;;;;;;77.75;60.75;;;;;12.08;67.38;102548.66;5014989;28;46037;-80
2021/11/19 08:49:44;;;;;;;;;29.50;28.00;;;;;12.07;66.86;102533.81;5015505;28;45587;-81
2021/11/19 08:52:14;;;;;;;;;17.25;16.00;;;;;12.10;66.76;102530.16;5017112;28;45908;-81
2021/11/19 08:54:41;;;;;;;;;8.50;7.75;;;;;12.13;66.67;102530.03;5020512;28;48363;-77
2021/11/19 09:00:33;;;;;;;;;17.25;16.00;;;;;12.28;66.58;102542.47;5018843;28;45782;-78
2021/11/19 09:03:00;;;;;;;;;23.50;22.00;;;;;12.31;66.43;102547.56;5017591;28;45651;-76
2021/11/19 09:05:30;;;;;;;;;17.25;16.75;;;;;12.32;66.37;102540.53;5018109;28;45579;-79
2021/11/19 09:07:56;;;;;;;;;16.00;14.25;;;;;12.34;66.08;102543.94;5018066;28;46134;-77
2021/11/19 09:10:23;;;;;;;;;17.00;15.00;;;;;12.36;66.12;102540.31;5017092;28;45617;-79
2021/11/19 09:12:49;;;;;;;;;17.25;16.25;;;;;12.36;66.03;102542.09;5017486;28;45670;-78
2021/11/19 09:15:17;;;;;;;;;17.00;16.00;;;;;12.35;65.86;102543.88;5017323;28;46735;-76
2021/11/19 09:18:11;;;;;;;;;18.00;15.00;;;;;12.46;65.99;102552.13;5015934;28;46290;-83
2021/11/19 09:21:05;;;;;;;;;16.50;16.50;;;;;12.53;65.94;102556.13;5016928;28;46012;-78
2021/11/19 09:23:36;;;;;;;;;19.25;18.75;;;;;12.60;66.18;102556.69;5016581;28;45881;-83
2021/11/19 09:26:12;;;;;;;;;16.50;15.75;;;;;12.61;65.91;102555.78;5015400;28;46639;-78
2021/11/19 09:28:42;;;;;;;;;19.25;18.00;;;;;12.55;65.52;102527.16;5014875;28;46206;-84
2021/11/19 09:31:11;;;;;;;;;19.00;18.00;;;;;12.70;65.36;102554.47;5015371;28;45682;-80
2021/11/19 09:33:37;;;;;;;;;18.50;17.25;;;;;12.56;65.08;102534.97;5014719;28;45640;-81
2021/11/19 09:36:04;;;;;;;;;18.25;14.75;;;;;12.75;65.50;102561.19;5015104;28;45610;-79
2021/11/19 09:38:30;;;;;;;;;19.75;18.25;;;;;12.77;65.40;102559.38;5015341;28;46220;-81
2021/11/19 09:41:02;;;;;;;;;16.50;16.00;;;;;12.84;65.59;102563.41;5014330;28;45645;-79
2021/11/19 09:44:06;;;;;;;;;16.00;14.75;;;;;12.74;65.52;102543.72;5015030;28;45596;-78
2021/11/19 09:46:49;;;;;;;;;18.00;16.50;;;;;12.94;65.21;102558.53;5013867;28;47736;-75
2021/11/19 09:50:04;;;;;;;;;22.75;21.50;;;;;12.98;64.84;102558.31;5014383;28;46380;-80
2021/11/19 09:52:44;;;;;;;;;17.25;15.25;;;;;13.02;65.02;102562.47;4954925;28;46150;-79
2021/11/19 09:58:25;;;;;;;;;14.00;12.50;;;;;13.05;64.39;102558.84;4954574;28;45708;-77
2021/11/19 10:01:01;;;;;;;;;13.00;12.00;;;;;13.06;64.26;102557.94;4954663;28;45617;-79
2021/11/19 10:03:57;;;;;;;;;19.25;13.50;;;;;13.02;64.30;102551.09;4953290;28;45799;-84
2021/11/19 10:06:38;;;;;;;;;17.00;15.75;;;;;13.12;64.56;102562.88;4894788;29;46087;-81
2021/11/19 10:09:26;;;;;;;;;18.25;16.00;;;;;13.16;64.51;102556.56;4896107;29;45675;-79
2021/11/19 10:15:20;;;;;;;;;22.50;18.50;;;;;13.28;64.40;102541.94;4895992;28;46280;-81
2021/11/19 10:18:07;;;;;;;;;18.00;16.00;;;;;13.38;64.18;102545.78;4896742;29;45722;-79
2021/11/19 10:20:42;;;;;;;;;15.50;14.75;;;;;13.37;63.92;102538.81;4897213;29;47577;-77
2021/11/19 10:23:14;;;;;;;;;18.00;16.25;;;;;13.42;63.90;102537.66;4897718;29;47531;-81
2021/11/19 10:32:26;;;;;;;;;21.25;16.75;;;;;13.65;63.63;102544.34;4957257;28;45662;-78
2021/11/19 10:35:12;;;;;;;;;20.00;19.50;;;;;13.70;63.63;102547.59;4955299;28;45650;-79
2021/11/19 10:37:44;;;;;;;;;17.75;17.25;;;;;13.74;63.40;102545.63;4953723;28;45820;-80
2021/11/19 10:40:15;;;;;;;;;18.75;16.00;;;;;13.76;63.21;102543.78;4953762;28;45641;-78
2021/11/19 10:42:40;;;;;;;;;19.50;16.75;;;;;13.77;63.13;102538.41;4966867;28;47764;-75
2021/11/19 10:45:43;;;;;;;;;14.75;13.50;;;;;13.59;63.61;102506.94;5016069;28;46230;-78
2021/11/19 10:48:27;;;;;;;;;16.50;13.25;;;;;13.81;63.19;102539.13;5016188;28;45657;-78
2021/11/19 10:51:02;;;;;;;;;15.75;12.75;;;;;13.83;63.34;102542.50;5015223;28;45732;-77
2021/11/19 10:53:43;;;;;;;;;12.25;11.00;;;;;13.86;62.94;102534.44;5014128;28;46455;-78
2021/11/19 10:59:36;;;;;;;;;13.00;11.50;;;;;13.90;62.99;102529.84;5014362;28;45839;-78
2021/11/19 11:02:07;;;;;;;;;12.00;10.50;;;;;13.92;62.30;102533.25;5014422;28;45979;-79
2021/11/19 11:05:02;;;;;;;;;14.75;12.25;;;;;13.91;62.48;102526.28;5014292;28;45659;-77
2021/11/19 11:07:31;;;;;;;;;16.75;13.25;;;;;13.92;62.47;102522.72;5013822;28;46148;-78
2021/11/19 11:10:05;;;;;;;;;11.50;10.25;;;;;13.92;61.80;102526.22;5014344;28;45556;-83
2021/11/19 11:15:57;;;;;;;;;16.00;15.00;;;;;13.93;62.19;102527.06;5014301;28;45659;-81
2021/11/19 11:18:27;;;;;;;;;14.25;13.25;;;;;13.93;62.18;102524.44;5013728;28;46610;-77
2021/11/19 11:20:52;;;;;;;;;14.00;12.00;;;;;13.96;62.08;102526.88;5014657;28;45595;-79
2021/11/19 11:23:45;;;;;;;;;14.00;11.75;;;;;13.95;61.64;102518.13;5014149;28;45664;-77
2021/11/19 11:32:49;;;;;;;;;14.50;13.25;;;;;13.93;61.20;102517.34;5013739;28;45681;-79
2021/11/19 11:35:18;;;;;;;;;19.25;18.25;;;;;13.93;61.68;102506.81;5012606;28;45548;-77
2021/11/19 11:38:09;;;;;;;;;18.75;15.50;;;;;13.93;62.10;102514.72;5012720;28;45651;-74
2021/11/19 11:41:05;;;;;;;;;14.00;13.50;;;;;13.92;61.27;102499.00;5012858;28;45538;-79
2021/11/19 11:43:39;;;;;;;;;29.50;26.00;;;;;13.92;61.33;102504.28;5012802;28;45616;-76
2021/11/19 11:46:51;;;;;;;;;20.00;17.25;;;;;13.83;61.34;102489.81;5012971;28;45597;-78
2021/11/19 11:49:36;;;;;;;;;19.25;16.00;;;;;13.86;61.12;102498.41;4894479;28;46537;-77
2021/11/19 11:52:14;;;;;;;;;14.75;13.25;;;;;13.87;61.39;102496.63;4894611;29;46378;-77
2021/11/19 11:55:20;;;;;;;;;13.50;12.00;;;;;13.91;61.51;102494.66;4894280;29;45922;-78
2021/11/19 12:01:18;;;;;;;;;10.00;9.75;;;;;13.95;61.16;102488.28;4895073;29;46221;-78
2021/11/19 12:03:54;;;;;;;;;12.00;11.00;;;;;13.92;61.78;102472.66;4894746;29;46256;-74
2021/11/19 12:06:29;;;;;;;;;11.00;10.75;;;;;13.91;61.10;102461.25;4894765;29;45708;-77
2021/11/19 12:09:10;;;;;;;;;10.50;9.00;;;;;14.02;61.01;102482.59;4894875;29;45812;-80
2021/11/19 12:15:10;;;;;;;;;13.50;12.50;;;;;14.07;61.46;102479.72;4896339;29;45888;-79
2021/11/19 12:17:57;;;;;;;;;15.00;13.00;;;;;14.09;61.36;102476.03;4898425;29;45734;-79
2021/11/19 12:20:25;;;;;;;;;15.00;13.25;;;;;14.09;60.93;102468.13;4898941;29;45796;-80
2021/11/19 12:23:10;;;;;;;;;12.75;12.25;;;;;14.07;60.94;102462.09;4897816;29;45869;-75
2021/11/19 12:26:10;;;;;;;;;18.00;14.75;;;;;14.14;61.08;102468.72;4928360;28;46053;-75
2021/11/19 12:32:24;;;;;;;;;18.25;15.00;;;;;14.17;60.71;102465.06;5016939;28;45659;-81